Terminal Aerodrome Forecast
Issued by NWS St Louis, MO

Home | Current Version | Previous Version | Text Only | Print | Product List | Glossary On
Versions: 1 2 3 4 5 6 7 8 9 10 11 12 13 14 15 16 17 18 19 20 21 22 23 24 25 26
000
FTUS43 KLSX 230800 AAA
TAFSTL
TAF AMD
KSTL 230853Z 2309/2412 23005KT P6SM SCT040 SCT120 BKN250
     FM231000 30006KT P6SM SCT040
     FM231400 01011KT P6SM SCT040
     FM240100 03005KT P6SM SKC=

USA.gov is the U.S. government's official web portal to all federal, state and local government web resources and services.